Redding Muni Information

FAA: RDD - ICAO: KRDD

Redding Muni (Airport) Location

State California
County Shasta
City Redding
Redding Muni (Airport) is 6 miles southeast of Redding, CA.
Latitude 40-30-32.3000N
Longitude 122-17-36.2000W
Elevation 504ft

Redding Muni METARs

METAR KRDD 251653Z 01012KT 10SM CLR 15/M06 A3013 RMK AO2 PK WND 01026/1629 SLP201 T01501061
Altimeter 30.13"
Temperature 15.0°C (59.0°F)
Wind 10° at 12KT
Clouds Skies are clear.
Visibility 10.0mi
Time observed: 2022-01-25T16:53:00Z

Redding Muni (Airport) Details

Status Operational
Activation July 1944
Ownership Public
Usage Public
Chart KLAMATH FALLS
ATC on-site Yes
Beacon schedule sunset-sunrise
Beacon color clear green

Redding Muni (Airport) Contacts

Owner CITY OF REDDING
Owner address AIRPORTS DIVISION, 6751 WOODRUM CIRCLE, #200, REDDING, CA 96002-6071
Owner phone 530-224-4321
Manager ELAINE K. TEWS
Manager address 13201 MOODY CREEK DR., REDDING, CA 96003
Manager phone (530) 949-0160

Redding Muni Radio Frequencies

Redding Muni (Airport) Radio Frequencies

UNICOM 122.95
Common traffic advisory frequency (CTAF) 119.8